Time;durP1;ratioP1;P1;durP2;ratioP2;P2;SDS_P1;SDS_P2;PMS_P1;PMS_P2;Temp;Humidity;BMP_temperature;BMP_pressure;BME280_temperature;BME280_humidity;BME280_pressure;Samples;Min_cycle;Max_cycle;Signal;HPM_P1;HPM_P2
2022/06/02 00:01:15;;;;;;;1.60;1.00;;;17.60;63.20;;;;;;5111116;28;20477;-75
2022/06/02 00:03:52;;;;;;;2.78;0.80;;;17.60;63.40;;;;;;5101748;28;20022;-73
2022/06/02 00:06:44;;;;;;;4.55;0.90;;;17.50;63.40;;;;;;5102720;28;20118;-73
2022/06/02 00:09:25;;;;;;;2.22;1.00;;;17.50;63.60;;;;;;5102119;28;20052;-73
2022/06/02 00:12:07;;;;;;;1.55;0.70;;;17.50;64.00;;;;;;5101880;28;20028;-73
2022/06/02 00:15:00;;;;;;;3.05;1.02;;;17.50;63.90;;;;;;5101178;28;20472;-73
2022/06/02 00:17:45;;;;;;;2.85;0.95;;;17.40;64.10;;;;;;5097569;28;20034;-74
2022/06/02 00:20:34;;;;;;;1.13;0.82;;;17.40;64.70;;;;;;5104776;28;20109;-74
2022/06/02 00:23:19;;;;;;;2.22;0.90;;;17.30;64.80;;;;;;5110660;28;20376;-73
2022/06/02 00:25:58;;;;;;;2.33;1.00;;;17.30;65.10;;;;;;5100471;28;20016;-73
2022/06/02 00:28:47;;;;;;;1.17;1.08;;;17.20;65.30;;;;;;5102373;28;20543;-73
2022/06/02 00:31:30;;;;;;;1.02;0.70;;;17.10;65.40;;;;;;5109950;28;20032;-73
2022/06/02 00:34:02;;;;;;;1.52;0.85;;;17.10;65.80;;;;;;5101948;28;20026;-74
2022/06/02 00:36:38;;;;;;;2.65;0.80;;;17.10;66.20;;;;;;5100562;28;20039;-73
2022/06/02 00:39:04;;;;;;;0.93;0.80;;;17.10;66.20;;;;;;5112002;28;20039;-76
2022/06/02 00:41:43;;;;;;;1.70;1.05;;;17.00;66.10;;;;;;5109408;28;20054;-73
2022/06/02 00:44:34;;;;;;;2.35;0.90;;;16.90;66.50;;;;;;5103024;28;20034;-74
2022/06/02 00:47:26;;;;;;;2.63;0.70;;;16.90;66.50;;;;;;5096923;28;20035;-74
2022/06/02 00:49:55;;;;;;;2.63;0.98;;;16.90;66.50;;;;;;5106431;28;20119;-74
2022/06/02 00:52:37;;;;;;;1.33;0.70;;;16.80;66.60;;;;;;5105853;28;20092;-73
2022/06/02 00:58:14;;;;;;;1.35;0.80;;;16.80;67.20;;;;;;5105043;28;20031;-74
2022/06/02 01:00:50;;;;;;;2.45;0.80;;;16.80;67.30;;;;;;5107717;28;20038;-73
2022/06/02 01:03:26;;;;;;;2.05;0.70;;;16.70;67.70;;;;;;5096017;28;20028;-74
2022/06/02 01:06:11;;;;;;;1.40;0.73;;;16.70;67.70;;;;;;5105606;28;20024;-74
2022/06/02 01:08:52;;;;;;;1.67;0.73;;;16.60;67.90;;;;;;5106519;28;20047;-73
2022/06/02 01:11:38;;;;;;;1.98;0.70;;;16.60;68.20;;;;;;5111067;28;20389;-73
2022/06/02 01:14:18;;;;;;;2.20;1.20;;;16.50;68.10;;;;;;5102183;28;20172;-76
2022/06/02 01:17:23;;;;;;;1.58;0.80;;;16.50;67.90;;;;;;5099744;28;20024;-74
2022/06/02 01:19:59;;;;;;;2.85;1.02;;;16.40;68.30;;;;;;5100240;28;20376;-73
2022/06/02 01:22:31;;;;;;;2.63;0.75;;;16.50;68.70;;;;;;5101515;28;20028;-73
2022/06/02 01:25:24;;;;;;;1.63;0.80;;;16.30;68.90;;;;;;5110533;28;20111;-73
2022/06/02 01:28:06;;;;;;;1.20;0.90;;;16.30;69.10;;;;;;5101501;28;20020;-73
2022/06/02 01:30:47;;;;;;;;;;;16.30;69.20;;;;;;5100113;28;20036;-73
2022/06/02 01:33:32;;;;;;;1.85;1.05;;;16.20;69.50;;;;;;5108804;28;20345;-74
2022/06/02 01:36:23;;;;;;;4.32;0.90;;;16.20;69.80;;;;;;5101057;28;20032;-73
2022/06/02 01:38:48;;;;;;;3.15;0.90;;;16.10;70.10;;;;;;5106367;28;20076;-73
2022/06/02 01:41:44;;;;;;;2.50;1.25;;;16.10;70.20;;;;;;5095301;28;20044;-73
2022/06/02 01:44:27;;;;;;;10.75;1.15;;;16.10;70.00;;;;;;5113775;28;20055;-73
2022/06/02 01:46:57;;;;;;;2.53;0.98;;;16.10;70.40;;;;;;5096485;28;20054;-74
2022/06/02 01:49:41;;;;;;;2.47;1.10;;;16.10;70.50;;;;;;5091814;28;20093;-73
2022/06/02 01:52:18;;;;;;;2.05;1.00;;;16.00;70.70;;;;;;5101446;28;20023;-74
2022/06/02 01:54:58;;;;;;;1.95;0.77;;;16.00;70.90;;;;;;5098738;28;20028;-74
2022/06/02 01:57:30;;;;;;;3.67;1.08;;;15.90;71.00;;;;;;5095305;28;20270;-74
2022/06/02 02:00:12;;;;;;;2.35;1.02;;;15.90;70.70;;;;;;5104372;28;20024;-73
2022/06/02 02:02:59;;;;;;;4.05;1.08;;;15.90;70.90;;;;;;5106153;28;20047;-74
2022/06/02 02:05:46;;;;;;;2.00;1.20;;;15.90;71.30;;;;;;5095169;28;20413;-73
2022/06/02 02:08:31;;;;;;;1.55;0.98;;;15.90;71.80;;;;;;5100774;28;20024;-73
2022/06/02 02:10:59;;;;;;;2.38;1.10;;;15.90;71.00;;;;;;5108496;28;20101;-73
2022/06/02 02:13:37;;;;;;;3.00;1.02;;;15.90;71.00;;;;;;5095121;28;20027;-73
2022/06/02 02:16:33;;;;;;;2.05;0.98;;;15.90;70.90;;;;;;5103929;28;20047;-73
2022/06/02 02:19:18;;;;;;;2.78;0.75;;;15.90;71.00;;;;;;5107970;28;20027;-73
2022/06/02 02:21:43;;;;;;;3.88;1.10;;;15.90;71.00;;;;;;5099242;28;20461;-73
2022/06/02 02:24:22;;;;;;;1.40;1.10;;;15.90;71.10;;;;;;5101277;28;20034;-73
2022/06/02 02:27:00;;;;;;;1.52;1.25;;;15.90;71.20;;;;;;5108507;28;20031;-73
2022/06/02 02:29:38;;;;;;;3.95;1.10;;;15.90;71.30;;;;;;5096014;28;20372;-73
2022/06/02 02:32:19;;;;;;;1.45;1.00;;;15.90;71.60;;;;;;5103550;28;20024;-76
2022/06/02 02:35:13;;;;;;;2.10;1.10;;;15.90;71.70;;;;;;5107839;28;20016;-73
2022/06/02 02:37:54;;;;;;;0.90;0.82;;;15.90;71.90;;;;;;5098525;28;20051;-74
2022/06/02 02:40:38;;;;;;;2.42;0.98;;;15.90;72.20;;;;;;5099103;28;20043;-73
2022/06/02 02:43:26;;;;;;;2.90;1.10;;;15.90;72.40;;;;;;5107941;28;20032;-72
2022/06/02 02:46:14;;;;;;;2.33;1.23;;;15.80;72.40;;;;;;5100101;28;20031;-73
2022/06/02 02:48:56;;;;;;;1.85;1.00;;;15.80;72.80;;;;;;5097115;28;20028;-73
2022/06/02 02:51:38;;;;;;;1.48;0.95;;;15.80;72.70;;;;;;5108494;28;20050;-73
2022/06/02 02:54:21;;;;;;;1.15;1.05;;;15.80;72.60;;;;;;5100287;28;20135;-76
2022/06/02 02:57:04;;;;;;;2.08;1.13;;;15.80;72.90;;;;;;5096059;28;20031;-73
2022/06/02 02:59:54;;;;;;;2.20;1.25;;;15.70;73.10;;;;;;5097163;28;20364;-73
2022/06/02 03:02:30;;;;;;;1.27;1.10;;;15.80;73.10;;;;;;5099367;28;20020;-73
2022/06/02 03:04:59;;;;;;;2.58;1.10;;;15.80;73.20;;;;;;5107707;28;20093;-73
2022/06/02 03:07:25;;;;;;;1.85;1.15;;;15.80;73.00;;;;;;5094245;28;20069;-73
2022/06/02 03:09:59;;;;;;;3.10;1.20;;;15.70;73.20;;;;;;5110857;28;20116;-73
2022/06/02 03:12:56;;;;;;;1.95;1.17;;;15.70;73.20;;;;;;5099444;28;20107;-73
2022/06/02 03:15:33;;;;;;;4.32;1.08;;;15.60;73.50;;;;;;5110660;28;20031;-73
2022/06/02 03:17:58;;;;;;;2.40;1.15;;;15.50;74.00;;;;;;5102768;28;20384;-73
2022/06/02 03:20:42;;;;;;;2.10;1.13;;;15.50;74.10;;;;;;5103774;28;20024;-73
2022/06/02 03:23:35;;;;;;;2.17;1.20;;;15.50;74.90;;;;;;5094737;28;20039;-73
2022/06/02 03:26:39;;;;;;;3.05;1.40;;;15.50;74.70;;;;;;5102264;28;20039;-73
2022/06/02 03:29:05;;;;;;;2.90;1.30;;;15.40;74.90;;;;;;5084374;28;20132;-74
2022/06/02 03:32:07;;;;;;;4.47;1.60;;;15.40;74.80;;;;;;5098732;28;20112;-73
2022/06/02 03:35:22;;;;;;;2.55;1.15;;;15.40;75.40;;;;;;5101957;28;20526;-73
2022/06/02 03:38:28;;;;;;;3.00;1.70;;;15.30;75.90;;;;;;5112871;27;20020;-73
2022/06/02 03:41:50;;;;;;;1.70;1.27;;;15.30;75.60;;;;;;5112303;28;20051;-73
2022/06/02 03:44:40;;;;;;;3.03;1.50;;;15.20;75.90;;;;;;5043521;28;20076;-73
2022/06/02 03:47:22;;;;;;;3.10;1.20;;;15.20;76.10;;;;;;5110072;28;20054;-73
2022/06/02 03:49:53;;;;;;;1.05;0.93;;;15.10;76.70;;;;;;5103027;28;20136;-73
2022/06/02 03:52:32;;;;;;;1.77;1.33;;;15.10;76.90;;;;;;5104075;28;20024;-72
2022/06/02 03:55:01;;;;;;;3.17;1.30;;;15.00;77.40;;;;;;5112530;28;20496;-73
2022/06/02 03:57:48;;;;;;;3.65;1.65;;;14.90;77.70;;;;;;5097907;28;20020;-73
2022/06/02 04:00:27;;;;;;;2.53;1.50;;;14.90;78.10;;;;;;5105036;28;20027;-73
2022/06/02 04:03:01;;;;;;;1.73;1.15;;;14.90;78.30;;;;;;5111870;28;20033;-73
2022/06/02 04:05:42;;;;;;;1.45;1.25;;;14.80;78.10;;;;;;5098004;28;20023;-73
2022/06/02 04:08:33;;;;;;;3.22;1.50;;;14.80;78.10;;;;;;5107173;28;20024;-75
2022/06/02 04:11:00;;;;;;;3.63;1.45;;;14.80;78.70;;;;;;5114323;28;20027;-73
2022/06/02 04:13:54;;;;;;;4.07;1.45;;;14.90;78.30;;;;;;5097598;28;20023;-73
2022/06/02 04:16:20;;;;;;;2.53;1.65;;;14.90;78.60;;;;;;5115221;28;20035;-73
2022/06/02 04:18:48;;;;;;;2.67;1.45;;;14.90;78.70;;;;;;5099035;28;20044;-73
2022/06/02 04:21:26;;;;;;;2.53;1.42;;;14.90;78.90;;;;;;5110336;28;20035;-73
2022/06/02 04:24:19;;;;;;;1.95;1.45;;;14.90;79.00;;;;;;5101749;28;20028;-73
2022/06/02 04:26:56;;;;;;;1.67;1.40;;;14.90;79.10;;;;;;5099084;28;20020;-73
2022/06/02 04:30:00;;;;;;;2.80;1.70;;;14.90;79.20;;;;;;5110161;28;20028;-73
2022/06/02 04:32:50;;;;;;;3.25;1.95;;;14.90;79.40;;;;;;5096922;28;20043;-73
2022/06/02 04:35:35;;;;;;;2.45;1.75;;;14.90;80.40;;;;;;5098168;28;20465;-73
2022/06/02 04:38:22;;;;;;;4.53;1.67;;;14.90;79.80;;;;;;5105110;28;20032;-73
2022/06/02 04:41:09;;;;;;;5.18;1.52;;;14.90;80.00;;;;;;5093076;28;20031;-73
2022/06/02 04:43:48;;;;;;;4.07;1.70;;;14.90;80.30;;;;;;5098957;28;20027;-72
2022/06/02 04:46:38;;;;;;;3.15;1.85;;;14.90;80.30;;;;;;5103798;28;20054;-73
2022/06/02 04:49:18;;;;;;;4.85;1.65;;;14.90;80.50;;;;;;5111475;28;20028;-73
2022/06/02 04:51:58;;;;;;;4.47;1.83;;;14.90;80.60;;;;;;5099961;28;20100;-73
2022/06/02 04:54:59;;;;;;;3.30;1.92;;;14.90;81.70;;;;;;5101903;28;20465;-73
2022/06/02 04:57:42;;;;;;;3.10;1.60;;;14.90;81.60;;;;;;5093386;28;20366;-73
2022/06/02 05:00:35;;;;;;;3.53;1.83;;;15.00;81.00;;;;;;5103899;28;20033;-73
2022/06/02 05:03:23;;;;;;;2.83;2.15;;;15.00;81.40;;;;;;5096549;28;20025;-73
2022/06/02 05:06:11;;;;;;;4.30;1.90;;;15.00;81.80;;;;;;5106417;28;20046;-72
2022/06/02 05:08:52;;;;;;;8.38;2.28;;;15.00;81.90;;;;;;5106574;28;20047;-73
2022/06/02 05:11:34;;;;;;;3.47;1.63;;;15.00;81.60;;;;;;5109760;28;20098;-72
2022/06/02 05:14:25;;;;;;;7.55;2.17;;;15.00;82.80;;;;;;5101882;28;20267;-73
2022/06/02 05:16:56;;;;;;;3.38;1.95;;;15.10;82.30;;;;;;5097342;28;20122;-72
2022/06/02 05:19:36;;;;;;;2.90;1.67;;;15.20;82.60;;;;;;5110781;28;20434;-73
2022/06/02 05:22:39;;;;;;;6.55;1.90;;;15.20;82.60;;;;;;5102933;28;20031;-72
2022/06/02 05:25:27;;;;;;;5.13;1.85;;;15.20;82.20;;;;;;5112557;28;20023;-76
2022/06/02 05:28:37;;;;;;;6.57;1.98;;;15.30;82.50;;;;;;5101623;28;20016;-72
2022/06/02 05:31:28;;;;;;;4.03;1.95;;;15.30;82.50;;;;;;5092700;28;20458;-73
2022/06/02 05:34:15;;;;;;;4.47;2.13;;;15.40;82.70;;;;;;5114485;28;20043;-72
2022/06/02 05:36:58;;;;;;;4.60;1.73;;;15.30;82.80;;;;;;5099281;28;20085;-73
2022/06/02 05:39:41;;;;;;;4.03;2.10;;;15.30;82.90;;;;;;5102267;28;20346;-73
2022/06/02 05:42:18;;;;;;;3.83;2.05;;;15.30;83.00;;;;;;5101560;28;20488;-74
2022/06/02 05:45:03;;;;;;;3.50;1.98;;;15.40;83.40;;;;;;5099002;28;20032;-74
2022/06/02 05:48:03;;;;;;;2.45;1.70;;;15.50;83.70;;;;;;5096361;28;20026;-73
2022/06/02 05:50:45;;;;;;;7.32;1.88;;;15.60;83.10;;;;;;5075853;28;20050;-73
2022/06/02 05:53:22;;;;;;;3.15;1.83;;;15.60;82.60;;;;;;5107642;28;20384;-73
2022/06/02 05:56:06;;;;;;;3.90;2.08;;;15.60;82.70;;;;;;5100291;28;20452;-73
2022/06/02 05:59:04;;;;;;;4.68;2.30;;;15.60;82.40;;;;;;5100340;28;20047;-73
2022/06/02 06:01:39;;;;;;;4.82;1.73;;;15.70;82.20;;;;;;5096741;28;20473;-73
2022/06/02 06:04:42;;;;;;;2.38;1.42;;;15.60;82.10;;;;;;5103793;28;20024;-74
2022/06/02 06:07:25;;;;;;;3.03;1.50;;;15.60;82.40;;;;;;5109396;28;20067;-73
2022/06/02 06:09:54;;;;;;;2.35;1.58;;;15.70;81.90;;;;;;5098851;28;20047;-73
2022/06/02 06:12:31;;;;;;;2.33;1.50;;;15.80;81.10;;;;;;5112771;28;20032;-73
2022/06/02 06:15:02;;;;;;;2.92;1.40;;;15.90;80.80;;;;;;5096683;28;20066;-73
2022/06/02 06:17:34;;;;;;;;;;;15.90;80.90;;;;;;5096031;28;20051;-73
2022/06/02 06:20:25;;;;;;;2.20;1.10;;;15.90;81.40;;;;;;5103293;28;19904;-74
2022/06/02 06:23:31;;;;;;;2.63;1.13;;;15.90;80.10;;;;;;5107592;28;20110;-74
2022/06/02 06:26:06;;;;;;;2.75;0.90;;;16.00;79.30;;;;;;5100072;28;20088;-74
2022/06/02 06:28:36;;;;;;;1.25;1.05;;;16.00;79.20;;;;;;5098428;28;20051;-73
2022/06/02 06:31:15;;;;;;;5.47;1.08;;;16.00;79.40;;;;;;5108267;28;20142;-74
2022/06/02 06:34:00;;;;;;;3.53;1.15;;;16.00;79.20;;;;;;5097599;28;20376;-73
2022/06/02 06:36:48;;;;;;;2.35;0.90;;;16.00;78.90;;;;;;5098789;28;20035;-74
2022/06/02 06:39:46;;;;;;;1.92;0.90;;;16.10;77.90;;;;;;5109523;28;20428;-74
2022/06/02 06:42:24;;;;;;;3.38;1.17;;;16.10;77.70;;;;;;5068057;28;20040;-73
2022/06/02 06:45:02;;;;;;;3.42;1.10;;;16.20;78.10;;;;;;5107145;28;20125;-73
2022/06/02 06:47:42;;;;;;;2.65;0.77;;;16.20;78.10;;;;;;5094944;28;20365;-73
2022/06/02 06:50:20;;;;;;;3.55;0.98;;;16.20;77.80;;;;;;5101023;28;20067;-74
2022/06/02 06:52:58;;;;;;;2.47;0.95;;;16.30;77.70;;;;;;5106425;28;20031;-74
2022/06/02 06:55:43;;;;;;;2.28;0.70;;;16.40;76.90;;;;;;5094425;28;20024;-73
2022/06/02 06:58:20;;;;;;;1.33;0.95;;;16.40;76.50;;;;;;5102121;28;20509;-74
2022/06/02 07:00:56;;;;;;;4.53;1.10;;;16.50;76.30;;;;;;5105944;28;20472;-73
2022/06/02 07:03:54;;;;;;;2.35;0.90;;;16.50;76.30;;;;;;5107437;28;20027;-74
2022/06/02 07:06:31;;;;;;;2.90;0.82;;;16.50;75.80;;;;;;5103647;28;20038;-74
2022/06/02 07:09:21;;;;;;;0.70;0.70;;;16.60;75.40;;;;;;5093936;28;20048;-73
2022/06/02 07:15:00;;;;;;;4.13;0.80;;;16.60;75.40;;;;;;5106614;28;20042;-73
2022/06/02 07:17:42;;;;;;;1.30;0.75;;;16.70;74.80;;;;;;5095818;28;20024;-73
2022/06/02 07:20:16;;;;;;;1.85;1.00;;;16.70;75.10;;;;;;5101287;28;20028;-73
2022/06/02 07:23:23;;;;;;;1.83;0.82;;;16.80;74.90;;;;;;5097921;28;20040;-73
2022/06/02 07:26:03;;;;;;;1.42;0.80;;;16.80;75.20;;;;;;5036515;28;20116;-73
2022/06/02 07:28:51;;;;;;;1.35;0.93;;;16.90;75.80;;;;;;5104417;28;20051;-73
2022/06/02 07:31:44;;;;;;;1.67;0.70;;;17.00;75.50;;;;;;5101843;28;20413;-73
2022/06/02 07:34:21;;;;;;;1.25;0.80;;;17.00;75.30;;;;;;5099996;28;20465;-74
2022/06/02 07:37:22;;;;;;;3.25;0.90;;;17.10;75.30;;;;;;5107207;28;20473;-73
2022/06/02 07:40:14;;;;;;;2.88;0.90;;;17.10;74.80;;;;;;5097503;28;20051;-72
2022/06/02 07:42:43;;;;;;;1.55;0.93;;;17.10;72.50;;;;;;5097963;28;20035;-73
2022/06/02 07:45:17;;;;;;;1.83;0.77;;;17.20;72.20;;;;;;5107994;28;20043;-74
2022/06/02 07:48:22;;;;;;;1.50;0.80;;;17.20;71.10;;;;;;5097314;28;20023;-73
2022/06/02 07:51:06;;;;;;;1.02;0.80;;;17.20;70.80;;;;;;5110313;28;20027;-73
2022/06/02 07:53:59;;;;;;;0.93;0.70;;;17.30;71.00;;;;;;5110699;28;20054;-73
2022/06/02 07:56:56;;;;;;;1.05;0.57;;;17.40;71.10;;;;;;5099094;28;20107;-73
2022/06/02 07:59:33;;;;;;;1.48;0.75;;;17.40;71.00;;;;;;5110119;28;20032;-73
2022/06/02 08:02:26;;;;;;;1.38;0.63;;;17.50;70.30;;;;;;5100658;28;20031;-73
2022/06/02 08:05:04;;;;;;;3.13;0.70;;;17.50;69.60;;;;;;5104376;28;20468;-73
2022/06/02 08:07:38;;;;;;;1.92;0.80;;;17.60;70.10;;;;;;5094672;28;20072;-74
2022/06/02 08:10:21;;;;;;;2.45;0.75;;;17.60;70.40;;;;;;5093583;28;20183;-74
2022/06/02 08:13:11;;;;;;;1.75;0.68;;;17.70;69.20;;;;;;5104410;28;20487;-74
2022/06/02 08:15:55;;;;;;;1.70;0.82;;;17.70;68.00;;;;;;5109130;28;20065;-73
2022/06/02 08:18:30;;;;;;;1.25;0.80;;;17.70;67.90;;;;;;5114086;28;20028;-73
2022/06/02 08:21:15;;;;;;;2.13;0.90;;;17.70;68.00;;;;;;5110834;28;20047;-74
2022/06/02 08:24:07;;;;;;;3.38;0.95;;;17.80;68.40;;;;;;5107204;28;20361;-74
2022/06/02 08:27:03;;;;;;;1.65;0.80;;;17.80;68.70;;;;;;5102055;27;20024;-74
2022/06/02 08:29:43;;;;;;;2.78;0.70;;;17.90;69.10;;;;;;5093051;28;20111;-74
2022/06/02 08:32:28;;;;;;;0.95;0.60;;;17.90;68.90;;;;;;5107222;28;20358;-76
2022/06/02 08:35:11;;;;;;;2.40;0.60;;;18.00;67.60;;;;;;5106826;28;20503;-71
2022/06/02 08:37:42;;;;;;;2.90;0.50;;;18.00;67.00;;;;;;5099142;28;20027;-71
2022/06/02 08:40:11;;;;;;;1.90;0.70;;;18.10;65.90;;;;;;5102538;28;20031;-74
2022/06/02 08:42:58;;;;;;;2.40;0.70;;;18.10;66.10;;;;;;5095162;28;20024;-71
2022/06/02 08:45:37;;;;;;;3.35;0.80;;;18.20;65.00;;;;;;5096260;28;20030;-73
2022/06/02 08:48:29;;;;;;;1.95;0.50;;;18.20;65.40;;;;;;5105761;28;20465;-72
2022/06/02 08:51:24;;;;;;;1.75;0.70;;;18.10;63.80;;;;;;5109006;28;20051;-73
2022/06/02 08:54:26;;;;;;;2.22;0.77;;;18.20;65.00;;;;;;5100583;28;20015;-74
2022/06/02 08:57:10;;;;;;;1.15;0.68;;;18.20;64.60;;;;;;5098567;28;20035;-74
2022/06/02 09:00:00;;;;;;;4.13;0.70;;;18.20;64.80;;;;;;5098586;28;20024;-74
2022/06/02 09:02:53;;;;;;;1.48;0.50;;;18.30;64.70;;;;;;5109837;28;20483;-73
2022/06/02 09:05:37;;;;;;;1.33;0.80;;;18.40;62.60;;;;;;5107519;28;20107;-73
2022/06/02 09:08:30;;;;;;;4.63;1.00;;;18.40;61.60;;;;;;5107939;28;20101;-73
2022/06/02 09:11:27;;;;;;;4.70;1.00;;;18.60;62.30;;;;;;5111450;28;20059;-73
2022/06/02 09:14:11;;;;;;;2.15;0.60;;;18.70;62.50;;;;;;5113774;28;20068;-73
2022/06/02 09:16:58;;;;;;;3.45;0.50;;;18.70;61.80;;;;;;5107194;28;20525;-75
2022/06/02 09:19:55;;;;;;;2.15;0.60;;;18.70;62.40;;;;;;5103958;28;20113;-73
2022/06/02 09:22:29;;;;;;;1.15;0.55;;;18.80;61.30;;;;;;5107196;28;20026;-74
2022/06/02 09:25:18;;;;;;;2.72;0.98;;;18.90;61.90;;;;;;5113588;28;20016;-73
2022/06/02 09:28:18;;;;;;;0.82;0.40;;;19.00;61.70;;;;;;5107198;28;20023;-73
2022/06/02 09:31:02;;;;;;;5.22;0.50;;;19.10;61.70;;;;;;5112356;28;20027;-75
2022/06/02 09:33:46;;;;;;;3.88;0.60;;;19.20;60.50;;;;;;5108063;28;20016;-78
2022/06/02 09:36:17;;;;;;;1.80;0.80;;;19.30;60.50;;;;;;5111269;28;20077;-78
2022/06/02 09:39:11;;;;;;;1.85;0.60;;;19.30;61.30;;;;;;5106923;28;20028;-77
2022/06/02 09:42:08;;;;;;;1.52;0.50;;;19.30;61.40;;;;;;5098762;28;20028;-77
2022/06/02 09:44:56;;;;;;;1.50;0.60;;;19.40;61.60;;;;;;5100918;28;20027;-78
2022/06/02 09:47:41;;;;;;;0.80;0.60;;;19.40;60.30;;;;;;5110308;28;20088;-77
2022/06/02 09:50:32;;;;;;;0.82;0.60;;;19.50;59.80;;;;;;5102523;28;20469;-78
2022/06/02 09:53:31;;;;;;;2.75;0.70;;;19.50;59.90;;;;;;5106948;28;20380;-78
2022/06/02 09:56:15;;;;;;;1.05;0.63;;;19.60;59.80;;;;;;5108124;28;20023;-78
2022/06/02 09:59:28;;;;;;;1.90;0.40;;;19.70;59.80;;;;;;5115425;28;20032;-79
2022/06/02 10:02:19;;;;;;;1.08;0.30;;;19.90;59.70;;;;;;5108362;28;20035;-79
2022/06/02 10:05:13;;;;;;;1.10;0.80;;;20.00;60.10;;;;;;5109900;28;20012;-80
2022/06/02 10:08:05;;;;;;;0.80;0.70;;;20.10;59.00;;;;;;5110290;28;20055;-78
2022/06/02 10:10:52;;;;;;;1.17;0.68;;;20.20;58.20;;;;;;5108357;28;20400;-78
2022/06/02 10:13:51;;;;;;;4.53;0.63;;;20.20;57.90;;;;;;5104327;28;20042;-78
2022/06/02 10:16:57;;;;;;;0.63;0.50;;;20.20;58.20;;;;;;5092885;28;20020;-76
2022/06/02 10:19:45;;;;;;;0.50;0.40;;;20.20;57.50;;;;;;5098632;28;20023;-76
2022/06/02 10:22:35;;;;;;;0.40;0.35;;;20.30;58.40;;;;;;5098979;28;20062;-75
2022/06/02 10:25:37;;;;;;;1.35;0.55;;;20.30;56.50;;;;;;5110487;28;20491;-78
2022/06/02 10:28:32;;;;;;;2.42;0.32;;;20.20;56.30;;;;;;5104618;28;20077;-76
2022/06/02 10:31:19;;;;;;;2.40;0.50;;;20.30;57.20;;;;;;5113178;28;20043;-77
2022/06/02 10:34:22;;;;;;;2.95;0.50;;;20.40;58.20;;;;;;5106923;28;20052;-75
2022/06/02 10:37:18;;;;;;;0.93;0.55;;;20.40;56.10;;;;;;5104570;28;20047;-75
2022/06/02 10:39:52;;;;;;;1.83;0.50;;;20.40;56.10;;;;;;5109332;28;20024;-75
2022/06/02 10:42:41;;;;;;;3.17;0.60;;;20.40;55.40;;;;;;5112743;28;20027;-76
2022/06/02 10:45:21;;;;;;;0.52;0.40;;;20.40;55.70;;;;;;5111768;28;20024;-76
2022/06/02 10:48:24;;;;;;;0.80;0.40;;;20.40;56.30;;;;;;5105003;28;20024;-74
2022/06/02 10:51:20;;;;;;;0.80;0.50;;;20.50;55.60;;;;;;5108370;28;20032;-75
2022/06/02 10:54:10;;;;;;;1.27;0.52;;;20.70;56.90;;;;;;5107262;28;20038;-75
2022/06/02 10:57:04;;;;;;;1.25;0.52;;;20.80;54.70;;;;;;5097739;28;20122;-75
2022/06/02 11:00:08;;;;;;;1.10;0.50;;;20.80;55.30;;;;;;5092491;28;20043;-75
2022/06/02 11:02:55;;;;;;;0.80;0.40;;;20.90;54.70;;;;;;5043577;28;20029;-75
2022/06/02 11:05:38;;;;;;;0.63;0.50;;;20.90;54.70;;;;;;5046188;28;20132;-75
2022/06/02 11:08:22;;;;;;;1.35;0.50;;;21.00;54.20;;;;;;5041997;28;20087;-75
2022/06/02 11:11:06;;;;;;;1.50;0.45;;;21.00;54.70;;;;;;5041742;28;20037;-78
2022/06/02 11:14:07;;;;;;;1.70;0.40;;;21.20;54.30;;;;;;5027283;28;20091;-76
2022/06/02 11:16:58;;;;;;;2.95;0.50;;;21.20;53.20;;;;;;5043096;28;20702;-76
2022/06/02 11:19:42;;;;;;;1.33;0.50;;;21.40;55.10;;;;;;5027970;28;20083;-78
2022/06/02 11:22:10;;;;;;;1.27;0.30;;;21.70;53.70;;;;;;5033534;28;20025;-78
2022/06/02 11:24:46;;;;;;;0.82;0.32;;;21.70;53.60;;;;;;5020069;28;20026;-77
2022/06/02 11:27:49;;;;;;;5.72;0.68;;;21.80;54.70;;;;;;5031827;28;20041;-77
2022/06/02 11:31:05;;;;;;;0.98;0.40;;;22.00;53.70;;;;;;5032884;28;20512;-77
2022/06/02 11:34:08;;;;;;;1.20;0.60;;;22.20;53.90;;;;;;5006129;28;20041;-78
2022/06/02 11:37:07;;;;;;;1.63;0.45;;;22.30;53.10;;;;;;5050191;28;20052;-78
2022/06/02 11:39:53;;;;;;;1.20;0.60;;;22.50;54.20;;;;;;5083578;28;20047;-78
2022/06/02 11:43:06;;;;;;;1.13;0.52;;;22.50;52.10;;;;;;5112524;28;20365;-78
2022/06/02 11:45:37;;;;;;;1.67;0.50;;;22.50;51.30;;;;;;5084961;28;20043;-78
2022/06/02 11:48:03;;;;;;;;;;;22.70;52.30;;;;;;5103677;28;20526;-78
2022/06/02 11:50:40;;;;;;;1.33;0.40;;;22.70;51.30;;;;;;5110639;28;19912;-78
2022/06/02 11:53:12;;;;;;;2.42;0.50;;;22.70;51.30;;;;;;5097345;28;20028;-78
2022/06/02 11:55:50;;;;;;;0.95;0.47;;;22.90;52.10;;;;;;5100927;28;20055;-78
2022/06/02 11:59:02;;;;;;;0.90;0.52;;;23.10;52.30;;;;;;5104863;28;20477;-78
2022/06/02 12:01:47;;;;;;;0.70;0.35;;;23.20;50.90;;;;;;5084719;28;20560;-78
2022/06/02 12:04:44;;;;;;;1.45;0.50;;;23.40;51.40;;;;;;5108987;28;20043;-78
2022/06/02 12:07:21;;;;;;;1.08;0.55;;;23.60;51.20;;;;;;5115985;28;20028;-79
2022/06/02 12:10:10;;;;;;;1.23;0.38;;;23.60;51.30;;;;;;5111700;28;20047;-79
2022/06/02 12:13:07;;;;;;;1.80;0.50;;;23.80;50.90;;;;;;5114848;28;20087;-77
2022/06/02 12:16:13;;;;;;;1.00;0.50;;;23.80;49.90;;;;;;5106985;28;20035;-78
2022/06/02 12:18:56;;;;;;;1.42;0.50;;;23.70;49.00;;;;;;5115145;28;20027;-77
2022/06/02 12:21:43;;;;;;;1.67;0.60;;;23.70;49.50;;;;;;5112705;28;20477;-76
2022/06/02 12:24:30;;;;;;;1.27;0.40;;;23.70;50.60;;;;;;5112860;28;20095;-75
2022/06/02 12:27:17;;;;;;;2.35;0.60;;;23.70;50.30;;;;;;5112492;28;20027;-74
2022/06/02 12:30:12;;;;;;;1.20;0.52;;;23.70;49.50;;;;;;5110042;28;20032;-74
2022/06/02 12:32:37;;;;;;;2.83;0.50;;;23.60;49.30;;;;;;5114520;28;20107;-74
2022/06/02 12:35:09;;;;;;;0.52;0.50;;;23.70;50.20;;;;;;5113212;28;20066;-73
2022/06/02 12:37:37;;;;;;;;;;;23.80;50.10;;;;;;5113417;28;20020;-74
2022/06/02 12:40:33;;;;;;;1.23;0.45;;;23.90;49.40;;;;;;5107333;28;19997;-74
2022/06/02 12:43:49;;;;;;;1.00;0.40;;;24.00;49.70;;;;;;5111877;28;20028;-74
2022/06/02 12:46:59;;;;;;;0.93;0.40;;;24.00;49.50;;;;;;5112047;28;20023;-74
2022/06/02 12:49:43;;;;;;;1.85;0.50;;;24.00;50.30;;;;;;5108925;28;20464;-75
2022/06/02 12:52:56;;;;;;;1.50;0.40;;;24.00;49.60;;;;;;5110551;28;20597;-76
2022/06/02 12:55:57;;;;;;;0.75;0.40;;;24.00;49.50;;;;;;5085037;27;20057;-74
2022/06/02 12:58:31;;;;;;;1.50;0.50;;;24.10;49.60;;;;;;5106926;28;20027;-74
2022/06/02 13:01:03;;;;;;;2.58;0.43;;;24.40;50.30;;;;;;5107422;28;20031;-76
2022/06/02 13:03:49;;;;;;;1.08;0.40;;;24.60;48.70;;;;;;5109449;28;20079;-76
2022/06/02 13:06:52;;;;;;;3.05;0.45;;;24.70;48.90;;;;;;5107093;28;20421;-75
2022/06/02 13:09:48;;;;;;;0.30;0.30;;;24.90;48.80;;;;;;5108666;28;20040;-76
2022/06/02 13:12:44;;;;;;;2.42;0.47;;;25.00;48.40;;;;;;5110755;28;20043;-76
2022/06/02 13:15:46;;;;;;;2.88;0.55;;;25.10;47.70;;;;;;5114528;28;20020;-76
2022/06/02 13:18:14;;;;;;;0.70;0.43;;;25.10;47.70;;;;;;5110019;28;20020;-76
2022/06/02 13:21:15;;;;;;;0.75;0.40;;;25.40;48.20;;;;;;5112100;28;20483;-75
2022/06/02 13:24:19;;;;;;;1.13;0.50;;;25.60;47.90;;;;;;5113121;28;20072;-75
2022/06/02 13:27:15;;;;;;;1.00;0.52;;;25.80;47.60;;;;;;5108020;28;20023;-77
2022/06/02 13:30:19;;;;;;;0.52;0.40;;;26.10;47.20;;;;;;5107274;28;20503;-79
2022/06/02 13:33:10;;;;;;;1.23;0.40;;;26.40;46.60;;;;;;5107969;28;20023;-77
2022/06/02 13:36:13;;;;;;;3.30;0.60;;;26.70;46.60;;;;;;5109272;28;20053;-76
2022/06/02 13:38:58;;;;;;;0.95;0.47;;;27.40;46.30;;;;;;5061003;28;20135;-77
2022/06/02 13:41:42;;;;;;;1.23;0.52;;;27.60;45.20;;;;;;5074086;28;20024;-75
2022/06/02 13:44:26;;;;;;;2.47;0.50;;;27.50;45.40;;;;;;5072242;28;20032;-76
2022/06/02 13:47:36;;;;;;;2.38;0.60;;;27.60;45.10;;;;;;5071756;28;20287;-75
2022/06/02 13:50:26;;;;;;;1.00;0.43;;;27.20;44.70;;;;;;5060162;28;20052;-77
2022/06/02 13:53:37;;;;;;;3.58;0.60;;;27.20;45.80;;;;;;5082955;28;20218;-77
2022/06/02 13:59:15;;;;;;;2.15;0.60;;;27.10;45.10;;;;;;5089759;28;20061;-77
2022/06/02 14:01:55;;;;;;;2.50;0.57;;;27.00;45.70;;;;;;5088646;28;20561;-77
2022/06/02 14:04:29;;;;;;;1.15;0.50;;;27.00;45.70;;;;;;5073479;28;20058;-77
2022/06/02 14:07:12;;;;;;;2.35;0.70;;;27.40;45.50;;;;;;5074046;28;20020;-77
2022/06/02 14:09:56;;;;;;;1.05;0.50;;;27.80;44.50;;;;;;5090006;28;20530;-76
2022/06/02 14:12:43;;;;;;;1.80;0.50;;;28.10;44.70;;;;;;5110396;28;20499;-75
2022/06/02 14:15:29;;;;;;;0.65;0.50;;;28.50;43.50;;;;;;5107534;28;20038;-76
2022/06/02 14:18:05;;;;;;;7.32;0.50;;;28.60;43.40;;;;;;5109060;28;20058;-76
2022/06/02 14:20:52;;;;;;;1.45;0.40;;;29.20;43.20;;;;;;5111293;28;20145;-77
2022/06/02 14:23:42;;;;;;;1.50;0.50;;;29.80;42.50;;;;;;5112911;28;20099;-77
2022/06/02 14:26:20;;;;;;;0.80;0.50;;;29.80;41.60;;;;;;5107755;28;20022;-77
2022/06/02 14:29:16;;;;;;;2.08;0.50;;;29.70;42.20;;;;;;5112108;28;20044;-76
2022/06/02 14:32:09;;;;;;;1.58;0.60;;;29.40;42.30;;;;;;5109037;28;20114;-75
2022/06/02 14:34:46;;;;;;;0.98;0.32;;;29.20;42.70;;;;;;5106944;28;20110;-77